sensor_id;sensor_type;location;lat;lon;timestamp;temperature;humidity
69324;DHT22;56470;47.350;8.718;2023-12-22T00:01:29;9.69;74.31
69324;DHT22;56470;47.350;8.718;2023-12-22T00:03:55;9.66;74.41
69324;DHT22;56470;47.350;8.718;2023-12-22T00:06:20;9.66;74.46
69324;DHT22;56470;47.350;8.718;2023-12-22T00:08:45;9.63;74.30
69324;DHT22;56470;47.350;8.718;2023-12-22T00:11:11;9.60;74.40
69324;DHT22;56470;47.350;8.718;2023-12-22T00:13:36;9.57;73.59
69324;DHT22;56470;47.350;8.718;2023-12-22T00:16:01;9.63;74.07
69324;DHT22;56470;47.350;8.718;2023-12-22T00:18:27;9.58;73.51
69324;DHT22;56470;47.350;8.718;2023-12-22T00:20:52;9.61;73.57
69324;DHT22;56470;47.350;8.718;2023-12-22T00:23:18;9.61;73.75
69324;DHT22;56470;47.350;8.718;2023-12-22T00:25:43;9.64;73.81
69324;DHT22;56470;47.350;8.718;2023-12-22T00:28:09;9.66;73.63
69324;DHT22;56470;47.350;8.718;2023-12-22T00:30:34;9.63;73.21
69324;DHT22;56470;47.350;8.718;2023-12-22T00:32:59;9.61;73.07
69324;DHT22;56470;47.350;8.718;2023-12-22T00:35:25;9.63;73.07
69324;DHT22;56470;47.350;8.718;2023-12-22T00:37:50;9.67;72.96
69324;DHT22;56470;47.350;8.718;2023-12-22T00:40:15;9.67;73.13
69324;DHT22;56470;47.350;8.718;2023-12-22T00:42:41;9.64;72.85
69324;DHT22;56470;47.350;8.718;2023-12-22T00:45:06;9.69;73.05
69324;DHT22;56470;47.350;8.718;2023-12-22T00:47:32;9.69;72.68
69324;DHT22;56470;47.350;8.718;2023-12-22T00:50:00;9.70;72.76
69324;DHT22;56470;47.350;8.718;2023-12-22T00:52:25;9.70;73.12
69324;DHT22;56470;47.350;8.718;2023-12-22T00:54:51;9.70;73.12
69324;DHT22;56470;47.350;8.718;2023-12-22T00:57:17;9.71;73.12
69324;DHT22;56470;47.350;8.718;2023-12-22T00:59:42;9.69;72.67
69324;DHT22;56470;47.350;8.718;2023-12-22T01:02:15;9.73;72.96
69324;DHT22;56470;47.350;8.718;2023-12-22T01:04:41;9.73;72.92
69324;DHT22;56470;47.350;8.718;2023-12-22T01:07:10;9.73;72.48
69324;DHT22;56470;47.350;8.718;2023-12-22T01:09:36;9.69;72.86
69324;DHT22;56470;47.350;8.718;2023-12-22T01:12:06;9.69;72.94
69324;DHT22;56470;47.350;8.718;2023-12-22T01:14:33;9.69;72.16
69324;DHT22;56470;47.350;8.718;2023-12-22T01:16:58;9.67;72.43
69324;DHT22;56470;47.350;8.718;2023-12-22T01:19:27;9.69;72.61
69324;DHT22;56470;47.350;8.718;2023-12-22T01:21:52;9.71;72.04
69324;DHT22;56470;47.350;8.718;2023-12-22T01:24:21;9.69;72.12
69324;DHT22;56470;47.350;8.718;2023-12-22T01:26:46;9.67;72.14
69324;DHT22;56470;47.350;8.718;2023-12-22T01:29:11;9.64;72.13
69324;DHT22;56470;47.350;8.718;2023-12-22T01:31:36;9.61;72.81
69324;DHT22;56470;47.350;8.718;2023-12-22T01:34:02;9.57;73.56
69324;DHT22;56470;47.350;8.718;2023-12-22T01:36:27;9.51;74.06
69324;DHT22;56470;47.350;8.718;2023-12-22T01:38:52;9.47;74.45
69324;DHT22;56470;47.350;8.718;2023-12-22T01:41:18;9.35;74.70
69324;DHT22;56470;47.350;8.718;2023-12-22T01:43:43;9.39;74.77
69324;DHT22;56470;47.350;8.718;2023-12-22T01:46:09;9.29;75.77
69324;DHT22;56470;47.350;8.718;2023-12-22T01:48:35;9.22;75.84
69324;DHT22;56470;47.350;8.718;2023-12-22T01:51:02;9.01;75.42
69324;DHT22;56470;47.350;8.718;2023-12-22T01:53:28;8.84;76.47
69324;DHT22;56470;47.350;8.718;2023-12-22T01:55:55;8.74;76.75
69324;DHT22;56470;47.350;8.718;2023-12-22T01:58:23;8.73;77.01
69324;DHT22;56470;47.350;8.718;2023-12-22T02:00:48;8.73;77.60
69324;DHT22;56470;47.350;8.718;2023-12-22T02:03:14;8.70;77.65
69324;DHT22;56470;47.350;8.718;2023-12-22T02:05:43;8.68;77.64
69324;DHT22;56470;47.350;8.718;2023-12-22T02:08:10;8.73;78.16
69324;DHT22;56470;47.350;8.718;2023-12-22T02:10:36;8.78;78.21
69324;DHT22;56470;47.350;8.718;2023-12-22T02:13:02;8.77;78.36
69324;DHT22;56470;47.350;8.718;2023-12-22T02:15:27;8.80;77.81
69324;DHT22;56470;47.350;8.718;2023-12-22T02:20:30;8.87;77.36
69324;DHT22;56470;47.350;8.718;2023-12-22T02:22:55;8.89;77.23
69324;DHT22;56470;47.350;8.718;2023-12-22T02:25:20;8.91;77.48
69324;DHT22;56470;47.350;8.718;2023-12-22T02:27:49;8.95;77.54
69324;DHT22;56470;47.350;8.718;2023-12-22T02:30:32;8.97;77.33
69324;DHT22;56470;47.350;8.718;2023-12-22T02:33:00;8.95;77.37
69324;DHT22;56470;47.350;8.718;2023-12-22T02:35:29;8.98;77.19
69324;DHT22;56470;47.350;8.718;2023-12-22T02:37:57;8.97;77.10
69324;DHT22;56470;47.350;8.718;2023-12-22T02:40:24;9.01;76.72
69324;DHT22;56470;47.350;8.718;2023-12-22T02:42:51;9.02;76.63
69324;DHT22;56470;47.350;8.718;2023-12-22T02:45:18;9.00;76.75
69324;DHT22;56470;47.350;8.718;2023-12-22T02:48:06;9.00;76.89
69324;DHT22;56470;47.350;8.718;2023-12-22T02:50:32;8.94;77.31
69324;DHT22;56470;47.350;8.718;2023-12-22T02:52:58;8.89;77.04
69324;DHT22;56470;47.350;8.718;2023-12-22T02:55:23;8.81;77.36
69324;DHT22;56470;47.350;8.718;2023-12-22T02:57:48;8.83;77.63
69324;DHT22;56470;47.350;8.718;2023-12-22T03:00:14;8.80;77.91
69324;DHT22;56470;47.350;8.718;2023-12-22T03:02:39;8.70;78.17
69324;DHT22;56470;47.350;8.718;2023-12-22T03:05:05;8.73;78.39
69324;DHT22;56470;47.350;8.718;2023-12-22T03:07:30;8.73;78.55
69324;DHT22;56470;47.350;8.718;2023-12-22T03:09:56;8.71;78.02
69324;DHT22;56470;47.350;8.718;2023-12-22T03:12:21;8.68;78.07
69324;DHT22;56470;47.350;8.718;2023-12-22T03:14:47;8.71;78.02
69324;DHT22;56470;47.350;8.718;2023-12-22T03:17:12;8.64;78.14
69324;DHT22;56470;47.350;8.718;2023-12-22T03:19:37;8.64;78.16
69324;DHT22;56470;47.350;8.718;2023-12-22T03:22:04;8.67;78.52
69324;DHT22;56470;47.350;8.718;2023-12-22T03:24:29;8.68;78.17
69324;DHT22;56470;47.350;8.718;2023-12-22T03:26:54;8.68;78.07
69324;DHT22;56470;47.350;8.718;2023-12-22T03:29:20;8.70;78.08
69324;DHT22;56470;47.350;8.718;2023-12-22T03:31:46;8.68;78.18
69324;DHT22;56470;47.350;8.718;2023-12-22T03:34:11;8.73;77.88
69324;DHT22;56470;47.350;8.718;2023-12-22T03:36:37;8.70;77.96
69324;DHT22;56470;47.350;8.718;2023-12-22T03:39:03;8.71;77.85
69324;DHT22;56470;47.350;8.718;2023-12-22T03:41:29;8.74;77.52
69324;DHT22;56470;47.350;8.718;2023-12-22T03:43:55;8.74;77.72
69324;DHT22;56470;47.350;8.718;2023-12-22T03:46:20;8.76;77.29
69324;DHT22;56470;47.350;8.718;2023-12-22T03:48:45;8.81;77.25
69324;DHT22;56470;47.350;8.718;2023-12-22T03:51:11;8.81;76.97
69324;DHT22;56470;47.350;8.718;2023-12-22T03:53:38;8.80;76.72
69324;DHT22;56470;47.350;8.718;2023-12-22T03:56:04;8.81;76.99
69324;DHT22;56470;47.350;8.718;2023-12-22T03:58:29;8.80;76.62
69324;DHT22;56470;47.350;8.718;2023-12-22T04:00:56;8.81;76.50
69324;DHT22;56470;47.350;8.718;2023-12-22T04:03:21;8.81;76.65
69324;DHT22;56470;47.350;8.718;2023-12-22T04:05:46;8.88;76.62
69324;DHT22;56470;47.350;8.718;2023-12-22T04:08:11;8.89;76.35
69324;DHT22;56470;47.350;8.718;2023-12-22T04:10:37;8.85;76.36
69324;DHT22;56470;47.350;8.718;2023-12-22T04:13:02;8.80;75.65
69324;DHT22;56470;47.350;8.718;2023-12-22T04:15:28;8.85;76.11
69324;DHT22;56470;47.350;8.718;2023-12-22T04:17:53;8.83;75.29
69324;DHT22;56470;47.350;8.718;2023-12-22T04:20:18;8.83;75.38
69324;DHT22;56470;47.350;8.718;2023-12-22T04:22:44;8.87;74.94
69324;DHT22;56470;47.350;8.718;2023-12-22T04:25:09;8.80;74.60
69324;DHT22;56470;47.350;8.718;2023-12-22T04:27:39;8.83;74.92
69324;DHT22;56470;47.350;8.718;2023-12-22T04:30:05;8.85;75.21
69324;DHT22;56470;47.350;8.718;2023-12-22T04:32:31;8.84;75.19
69324;DHT22;56470;47.350;8.718;2023-12-22T04:34:59;8.78;74.67
69324;DHT22;56470;47.350;8.718;2023-12-22T04:37:24;8.81;74.06
69324;DHT22;56470;47.350;8.718;2023-12-22T04:39:49;8.74;74.04
69324;DHT22;56470;47.350;8.718;2023-12-22T04:42:15;8.78;74.30
69324;DHT22;56470;47.350;8.718;2023-12-22T04:44:40;8.74;74.31
69324;DHT22;56470;47.350;8.718;2023-12-22T04:47:05;8.66;74.37
69324;DHT22;56470;47.350;8.718;2023-12-22T04:49:31;8.61;74.68
69324;DHT22;56470;47.350;8.718;2023-12-22T04:51:56;8.61;74.85
69324;DHT22;56470;47.350;8.718;2023-12-22T04:54:21;8.59;74.86
69324;DHT22;56470;47.350;8.718;2023-12-22T04:56:47;8.56;75.15
69324;DHT22;56470;47.350;8.718;2023-12-22T04:59:12;8.57;74.68
69324;DHT22;56470;47.350;8.718;2023-12-22T05:01:37;8.54;74.60
69324;DHT22;56470;47.350;8.718;2023-12-22T05:04:03;8.57;74.51
69324;DHT22;56470;47.350;8.718;2023-12-22T05:06:28;8.54;74.16
69324;DHT22;56470;47.350;8.718;2023-12-22T05:08:56;8.54;74.09
69324;DHT22;56470;47.350;8.718;2023-12-22T05:11:22;8.57;74.21
69324;DHT22;56470;47.350;8.718;2023-12-22T05:13:47;8.63;74.19
69324;DHT22;56470;47.350;8.718;2023-12-22T05:16:13;8.64;74.23
69324;DHT22;56470;47.350;8.718;2023-12-22T05:18:39;8.66;73.98
69324;DHT22;56470;47.350;8.718;2023-12-22T05:21:05;8.68;74.01
69324;DHT22;56470;47.350;8.718;2023-12-22T05:23:47;8.68;73.75
69324;DHT22;56470;47.350;8.718;2023-12-22T05:26:43;8.68;73.52
69324;DHT22;56470;47.350;8.718;2023-12-22T05:29:28;8.68;73.13
69324;DHT22;56470;47.350;8.718;2023-12-22T05:32:10;8.70;73.33
69324;DHT22;56470;47.350;8.718;2023-12-22T05:35:01;8.68;73.04
69324;DHT22;56470;47.350;8.718;2023-12-22T05:37:34;8.71;73.46
69324;DHT22;56470;47.350;8.718;2023-12-22T05:40:07;8.74;73.22
69324;DHT22;56470;47.350;8.718;2023-12-22T05:42:39;8.68;73.00
69324;DHT22;56470;47.350;8.718;2023-12-22T05:45:11;8.73;73.24
69324;DHT22;56470;47.350;8.718;2023-12-22T05:47:39;8.71;72.93
69324;DHT22;56470;47.350;8.718;2023-12-22T05:50:04;8.74;72.79
69324;DHT22;56470;47.350;8.718;2023-12-22T05:52:30;8.77;73.03
69324;DHT22;56470;47.350;8.718;2023-12-22T05:54:55;8.80;72.65
69324;DHT22;56470;47.350;8.718;2023-12-22T05:57:20;8.81;72.54
69324;DHT22;56470;47.350;8.718;2023-12-22T05:59:46;8.80;71.95
69324;DHT22;56470;47.350;8.718;2023-12-22T06:02:11;8.84;72.50
69324;DHT22;56470;47.350;8.718;2023-12-22T06:04:36;8.83;72.09
69324;DHT22;56470;47.350;8.718;2023-12-22T06:07:02;8.84;72.20
69324;DHT22;56470;47.350;8.718;2023-12-22T06:09:27;8.85;72.32
69324;DHT22;56470;47.350;8.718;2023-12-22T06:11:53;8.87;71.80
69324;DHT22;56470;47.350;8.718;2023-12-22T06:14:18;8.85;71.80
69324;DHT22;56470;47.350;8.718;2023-12-22T06:16:44;8.89;72.06
69324;DHT22;56470;47.350;8.718;2023-12-22T06:19:09;8.91;71.61
69324;DHT22;56470;47.350;8.718;2023-12-22T06:21:38;8.91;71.61
69324;DHT22;56470;47.350;8.718;2023-12-22T06:24:04;8.94;71.88
69324;DHT22;56470;47.350;8.718;2023-12-22T06:26:30;8.95;71.53
69324;DHT22;56470;47.350;8.718;2023-12-22T06:28:56;8.95;71.57
69324;DHT22;56470;47.350;8.718;2023-12-22T06:31:21;8.97;70.75
69324;DHT22;56470;47.350;8.718;2023-12-22T06:33:48;8.97;72.03
69324;DHT22;56470;47.350;8.718;2023-12-22T06:38:45;8.98;71.32
69324;DHT22;56470;47.350;8.718;2023-12-22T06:41:24;8.94;70.31
69324;DHT22;56470;47.350;8.718;2023-12-22T06:43:50;8.95;69.81
69324;DHT22;56470;47.350;8.718;2023-12-22T06:46:19;8.98;70.15
69324;DHT22;56470;47.350;8.718;2023-12-22T06:48:45;9.00;69.85
69324;DHT22;56470;47.350;8.718;2023-12-22T06:51:21;8.94;69.49
69324;DHT22;56470;47.350;8.718;2023-12-22T06:53:47;8.97;69.41
69324;DHT22;56470;47.350;8.718;2023-12-22T06:56:19;8.98;69.51
69324;DHT22;56470;47.350;8.718;2023-12-22T06:58:46;8.98;69.48
69324;DHT22;56470;47.350;8.718;2023-12-22T07:01:28;9.02;69.97
69324;DHT22;56470;47.350;8.718;2023-12-22T07:03:54;9.05;69.78
69324;DHT22;56470;47.350;8.718;2023-12-22T07:06:20;9.02;69.17
69324;DHT22;56470;47.350;8.718;2023-12-22T07:11:39;9.08;69.40
69324;DHT22;56470;47.350;8.718;2023-12-22T07:14:05;9.04;68.67
69324;DHT22;56470;47.350;8.718;2023-12-22T07:16:30;9.04;69.13
69324;DHT22;56470;47.350;8.718;2023-12-22T07:18:55;9.07;69.28
69324;DHT22;56470;47.350;8.718;2023-12-22T07:21:20;9.02;68.99
69324;DHT22;56470;47.350;8.718;2023-12-22T07:23:46;9.05;69.48
69324;DHT22;56470;47.350;8.718;2023-12-22T07:26:12;9.08;69.60
69324;DHT22;56470;47.350;8.718;2023-12-22T07:28:37;9.07;69.53
69324;DHT22;56470;47.350;8.718;2023-12-22T07:31:02;9.11;70.35
69324;DHT22;56470;47.350;8.718;2023-12-22T07:33:28;9.16;70.48
69324;DHT22;56470;47.350;8.718;2023-12-22T07:35:53;9.18;70.74
69324;DHT22;56470;47.350;8.718;2023-12-22T07:38:18;9.15;71.12
69324;DHT22;56470;47.350;8.718;2023-12-22T07:40:44;9.12;72.00
69324;DHT22;56470;47.350;8.718;2023-12-22T07:43:09;9.14;71.86
69324;DHT22;56470;47.350;8.718;2023-12-22T07:45:34;9.04;72.27
69324;DHT22;56470;47.350;8.718;2023-12-22T07:48:00;9.00;72.34
69324;DHT22;56470;47.350;8.718;2023-12-22T07:50:25;8.91;72.64
69324;DHT22;56470;47.350;8.718;2023-12-22T07:52:50;8.77;72.36
69324;DHT22;56470;47.350;8.718;2023-12-22T07:55:16;8.74;72.92
69324;DHT22;56470;47.350;8.718;2023-12-22T07:57:41;8.64;74.06
69324;DHT22;56470;47.350;8.718;2023-12-22T08:00:07;8.60;74.08
69324;DHT22;56470;47.350;8.718;2023-12-22T08:02:34;8.60;74.11
69324;DHT22;56470;47.350;8.718;2023-12-22T08:04:59;8.63;73.91
69324;DHT22;56470;47.350;8.718;2023-12-22T08:07:24;8.63;73.75
69324;DHT22;56470;47.350;8.718;2023-12-22T08:09:50;8.63;73.81
69324;DHT22;56470;47.350;8.718;2023-12-22T08:12:15;8.61;73.78
69324;DHT22;56470;47.350;8.718;2023-12-22T08:14:40;8.64;73.89
69324;DHT22;56470;47.350;8.718;2023-12-22T08:17:06;8.63;73.81
69324;DHT22;56470;47.350;8.718;2023-12-22T08:19:31;8.63;73.78
69324;DHT22;56470;47.350;8.718;2023-12-22T08:21:56;8.63;73.71
69324;DHT22;56470;47.350;8.718;2023-12-22T08:24:22;8.61;73.71
69324;DHT22;56470;47.350;8.718;2023-12-22T08:26:47;8.68;73.53
69324;DHT22;56470;47.350;8.718;2023-12-22T08:29:13;8.68;73.13
69324;DHT22;56470;47.350;8.718;2023-12-22T08:31:39;8.68;73.25
69324;DHT22;56470;47.350;8.718;2023-12-22T08:34:04;8.70;72.94
69324;DHT22;56470;47.350;8.718;2023-12-22T08:36:31;8.74;73.51
69324;DHT22;56470;47.350;8.718;2023-12-22T08:38:56;8.77;73.00
69324;DHT22;56470;47.350;8.718;2023-12-22T08:41:21;8.76;72.65
69324;DHT22;56470;47.350;8.718;2023-12-22T08:43:47;8.77;72.70
69324;DHT22;56470;47.350;8.718;2023-12-22T08:46:12;8.76;72.91
69324;DHT22;56470;47.350;8.718;2023-12-22T08:48:38;8.78;72.60
69324;DHT22;56470;47.350;8.718;2023-12-22T08:51:03;8.80;72.80
69324;DHT22;56470;47.350;8.718;2023-12-22T08:53:29;8.81;72.81
69324;DHT22;56470;47.350;8.718;2023-12-22T08:55:59;8.84;72.55
69324;DHT22;56470;47.350;8.718;2023-12-22T08:58:24;8.84;72.70
69324;DHT22;56470;47.350;8.718;2023-12-22T09:00:50;8.88;72.82
69324;DHT22;56470;47.350;8.718;2023-12-22T09:03:16;8.92;72.70
69324;DHT22;56470;47.350;8.718;2023-12-22T09:05:41;8.92;72.64
69324;DHT22;56470;47.350;8.718;2023-12-22T09:08:07;8.91;72.78
69324;DHT22;56470;47.350;8.718;2023-12-22T09:10:32;8.91;72.36
69324;DHT22;56470;47.350;8.718;2023-12-22T09:12:58;8.88;72.44
69324;DHT22;56470;47.350;8.718;2023-12-22T09:15:23;8.84;72.22
69324;DHT22;56470;47.350;8.718;2023-12-22T09:17:49;8.74;72.05
69324;DHT22;56470;47.350;8.718;2023-12-22T09:20:15;8.78;72.43
69324;DHT22;56470;47.350;8.718;2023-12-22T09:22:40;8.77;72.22
69324;DHT22;56470;47.350;8.718;2023-12-22T09:25:05;8.71;72.37
69324;DHT22;56470;47.350;8.718;2023-12-22T09:27:31;8.73;72.31
69324;DHT22;56470;47.350;8.718;2023-12-22T09:29:57;8.67;72.62
69324;DHT22;56470;47.350;8.718;2023-12-22T09:32:22;8.70;72.42
69324;DHT22;56470;47.350;8.718;2023-12-22T09:34:47;8.71;72.63
69324;DHT22;56470;47.350;8.718;2023-12-22T09:37:14;8.71;72.83
69324;DHT22;56470;47.350;8.718;2023-12-22T09:39:39;8.77;72.94
69324;DHT22;56470;47.350;8.718;2023-12-22T09:42:05;8.68;73.02
69324;DHT22;56470;47.350;8.718;2023-12-22T09:44:32;8.73;72.95
69324;DHT22;56470;47.350;8.718;2023-12-22T09:46:58;8.71;72.89
69324;DHT22;56470;47.350;8.718;2023-12-22T09:49:24;8.64;72.59
69324;DHT22;56470;47.350;8.718;2023-12-22T09:51:50;8.70;72.45
69324;DHT22;56470;47.350;8.718;2023-12-22T09:54:16;8.74;72.73
69324;DHT22;56470;47.350;8.718;2023-12-22T09:56:42;8.77;72.31
69324;DHT22;56470;47.350;8.718;2023-12-22T09:59:12;8.80;72.60
69324;DHT22;56470;47.350;8.718;2023-12-22T10:01:41;8.81;72.10
69324;DHT22;56470;47.350;8.718;2023-12-22T10:04:07;8.83;72.38
69324;DHT22;56470;47.350;8.718;2023-12-22T10:06:33;8.87;72.27
69324;DHT22;56470;47.350;8.718;2023-12-22T10:08:58;8.85;72.18
69324;DHT22;56470;47.350;8.718;2023-12-22T10:11:25;8.85;71.91
69324;DHT22;56470;47.350;8.718;2023-12-22T10:13:52;8.89;71.95
69324;DHT22;56470;47.350;8.718;2023-12-22T10:16:18;8.89;71.95
69324;DHT22;56470;47.350;8.718;2023-12-22T10:18:43;8.92;72.36
69324;DHT22;56470;47.350;8.718;2023-12-22T10:21:09;8.92;72.26
69324;DHT22;56470;47.350;8.718;2023-12-22T10:23:34;8.94;72.41
69324;DHT22;56470;47.350;8.718;2023-12-22T10:25:59;8.91;72.69
69324;DHT22;56470;47.350;8.718;2023-12-22T10:28:27;8.94;72.43
69324;DHT22;56470;47.350;8.718;2023-12-22T10:30:53;8.91;72.77
69324;DHT22;56470;47.350;8.718;2023-12-22T10:33:21;8.89;72.67
69324;DHT22;56470;47.350;8.718;2023-12-22T10:35:46;8.88;72.88
69324;DHT22;56470;47.350;8.718;2023-12-22T10:38:11;8.89;72.77
69324;DHT22;56470;47.350;8.718;2023-12-22T10:40:37;8.85;72.67
69324;DHT22;56470;47.350;8.718;2023-12-22T10:43:04;8.89;73.00
69324;DHT22;56470;47.350;8.718;2023-12-22T10:45:29;8.91;72.97
69324;DHT22;56470;47.350;8.718;2023-12-22T10:47:56;8.94;72.86
69324;DHT22;56470;47.350;8.718;2023-12-22T10:50:22;8.97;73.27
69324;DHT22;56470;47.350;8.718;2023-12-22T10:52:50;8.98;73.83
69324;DHT22;56470;47.350;8.718;2023-12-22T10:55:17;9.01;74.20
69324;DHT22;56470;47.350;8.718;2023-12-22T10:57:45;9.04;74.01
69324;DHT22;56470;47.350;8.718;2023-12-22T11:00:11;8.92;74.19
69324;DHT22;56470;47.350;8.718;2023-12-22T11:02:39;8.91;74.38
69324;DHT22;56470;47.350;8.718;2023-12-22T11:05:10;8.94;74.54
69324;DHT22;56470;47.350;8.718;2023-12-22T11:07:36;8.92;74.30
69324;DHT22;56470;47.350;8.718;2023-12-22T11:10:06;8.89;74.73
69324;DHT22;56470;47.350;8.718;2023-12-22T11:12:35;8.84;75.03
69324;DHT22;56470;47.350;8.718;2023-12-22T11:15:02;8.81;75.37
69324;DHT22;56470;47.350;8.718;2023-12-22T11:17:28;8.81;75.50
69324;DHT22;56470;47.350;8.718;2023-12-22T11:19:55;8.77;75.50
69324;DHT22;56470;47.350;8.718;2023-12-22T11:22:22;8.68;76.24
69324;DHT22;56470;47.350;8.718;2023-12-22T11:24:48;8.70;75.97
69324;DHT22;56470;47.350;8.718;2023-12-22T11:27:18;8.66;76.01
69324;DHT22;56470;47.350;8.718;2023-12-22T11:29:47;8.63;76.19
69324;DHT22;56470;47.350;8.718;2023-12-22T11:32:15;8.59;76.44
69324;DHT22;56470;47.350;8.718;2023-12-22T11:34:42;8.61;76.71
69324;DHT22;56470;47.350;8.718;2023-12-22T11:37:09;8.57;76.15
69324;DHT22;56470;47.350;8.718;2023-12-22T11:39:36;8.56;76.82
69324;DHT22;56470;47.350;8.718;2023-12-22T11:42:02;8.57;76.69
69324;DHT22;56470;47.350;8.718;2023-12-22T11:44:29;8.52;76.63
69324;DHT22;56470;47.350;8.718;2023-12-22T11:47:08;8.52;76.79
69324;DHT22;56470;47.350;8.718;2023-12-22T11:49:34;8.52;76.68
69324;DHT22;56470;47.350;8.718;2023-12-22T11:52:13;8.45;77.74
69324;DHT22;56470;47.350;8.718;2023-12-22T11:54:47;8.45;77.23
69324;DHT22;56470;47.350;8.718;2023-12-22T12:02:54;8.49;76.94
69324;DHT22;56470;47.350;8.718;2023-12-22T12:05:20;8.43;77.19
69324;DHT22;56470;47.350;8.718;2023-12-22T12:07:46;8.40;77.29
69324;DHT22;56470;47.350;8.718;2023-12-22T12:10:51;8.35;78.63
69324;DHT22;56470;47.350;8.718;2023-12-22T12:13:22;8.32;77.79
69324;DHT22;56470;47.350;8.718;2023-12-22T12:15:50;8.29;77.81
69324;DHT22;56470;47.350;8.718;2023-12-22T12:18:21;8.28;77.75
69324;DHT22;56470;47.350;8.718;2023-12-22T12:20:48;8.29;77.31
69324;DHT22;56470;47.350;8.718;2023-12-22T12:23:15;8.31;77.92
69324;DHT22;56470;47.350;8.718;2023-12-22T12:25:42;8.25;78.30
69324;DHT22;56470;47.350;8.718;2023-12-22T12:28:08;8.22;78.65
69324;DHT22;56470;47.350;8.718;2023-12-22T12:30:35;8.25;78.24
69324;DHT22;56470;47.350;8.718;2023-12-22T12:33:08;8.28;78.42
69324;DHT22;56470;47.350;8.718;2023-12-22T12:35:34;8.35;78.32
69324;DHT22;56470;47.350;8.718;2023-12-22T12:38:00;8.33;78.45
69324;DHT22;56470;47.350;8.718;2023-12-22T12:40:27;8.35;78.65
69324;DHT22;56470;47.350;8.718;2023-12-22T12:42:54;8.38;78.60
69324;DHT22;56470;47.350;8.718;2023-12-22T12:45:24;8.35;78.77
69324;DHT22;56470;47.350;8.718;2023-12-22T12:47:59;8.31;78.72
69324;DHT22;56470;47.350;8.718;2023-12-22T12:50:26;8.31;79.43
69324;DHT22;56470;47.350;8.718;2023-12-22T12:52:55;8.32;78.94
69324;DHT22;56470;47.350;8.718;2023-12-22T12:55:21;8.29;78.97
69324;DHT22;56470;47.350;8.718;2023-12-22T12:57:51;8.32;79.08
69324;DHT22;56470;47.350;8.718;2023-12-22T13:00:30;8.29;79.79
69324;DHT22;56470;47.350;8.718;2023-12-22T13:05:30;8.25;79.40
69324;DHT22;56470;47.350;8.718;2023-12-22T13:10:36;8.06;80.59
69324;DHT22;56470;47.350;8.718;2023-12-22T13:13:02;8.06;80.98
69324;DHT22;56470;47.350;8.718;2023-12-22T13:15:28;8.11;80.65
69324;DHT22;56470;47.350;8.718;2023-12-22T13:17:54;8.05;80.91
69324;DHT22;56470;47.350;8.718;2023-12-22T13:20:20;8.08;80.74
69324;DHT22;56470;47.350;8.718;2023-12-22T13:22:45;7.99;81.44
69324;DHT22;56470;47.350;8.718;2023-12-22T13:25:11;7.99;81.71
69324;DHT22;56470;47.350;8.718;2023-12-22T13:27:51;8.04;81.42
69324;DHT22;56470;47.350;8.718;2023-12-22T13:30:38;8.02;82.56
69324;DHT22;56470;47.350;8.718;2023-12-22T13:33:07;7.98;82.11
69324;DHT22;56470;47.350;8.718;2023-12-22T13:35:33;8.02;81.52
69324;DHT22;56470;47.350;8.718;2023-12-22T13:38:05;8.02;81.98
69324;DHT22;56470;47.350;8.718;2023-12-22T13:40:30;8.05;81.80
69324;DHT22;56470;47.350;8.718;2023-12-22T13:42:57;8.08;81.71
69324;DHT22;56470;47.350;8.718;2023-12-22T13:45:24;8.15;81.04
69324;DHT22;56470;47.350;8.718;2023-12-22T13:47:49;8.18;81.35
69324;DHT22;56470;47.350;8.718;2023-12-22T13:50:18;8.26;80.85
69324;DHT22;56470;47.350;8.718;2023-12-22T13:52:49;8.32;80.67
69324;DHT22;56470;47.350;8.718;2023-12-22T13:55:17;8.33;80.17
69324;DHT22;56470;47.350;8.718;2023-12-22T13:57:43;8.39;80.69
69324;DHT22;56470;47.350;8.718;2023-12-22T14:02:49;8.40;80.72
69324;DHT22;56470;47.350;8.718;2023-12-22T14:05:18;8.36;80.99
69324;DHT22;56470;47.350;8.718;2023-12-22T14:07:44;8.38;81.19
69324;DHT22;56470;47.350;8.718;2023-12-22T14:10:11;8.40;81.19
69324;DHT22;56470;47.350;8.718;2023-12-22T14:12:37;8.38;81.68
69324;DHT22;56470;47.350;8.718;2023-12-22T14:15:11;8.35;81.91
69324;DHT22;56470;47.350;8.718;2023-12-22T14:17:38;8.26;82.89
69324;DHT22;56470;47.350;8.718;2023-12-22T14:20:04;8.22;83.01
69324;DHT22;56470;47.350;8.718;2023-12-22T14:22:37;8.28;82.73
69324;DHT22;56470;47.350;8.718;2023-12-22T14:25:03;8.28;83.15
69324;DHT22;56470;47.350;8.718;2023-12-22T14:27:29;8.33;82.74
69324;DHT22;56470;47.350;8.718;2023-12-22T14:29:54;8.36;82.65
69324;DHT22;56470;47.350;8.718;2023-12-22T14:32:20;8.42;82.43
69324;DHT22;56470;47.350;8.718;2023-12-22T14:34:46;8.48;81.95
69324;DHT22;56470;47.350;8.718;2023-12-22T14:37:11;8.43;82.95
69324;DHT22;56470;47.350;8.718;2023-12-22T14:39:36;8.48;82.22
69324;DHT22;56470;47.350;8.718;2023-12-22T14:42:02;8.49;82.14
69324;DHT22;56470;47.350;8.718;2023-12-22T14:44:31;8.52;81.98
69324;DHT22;56470;47.350;8.718;2023-12-22T14:46:56;8.45;82.28
69324;DHT22;56470;47.350;8.718;2023-12-22T14:49:21;8.49;82.04
69324;DHT22;56470;47.350;8.718;2023-12-22T14:51:47;8.50;82.07
69324;DHT22;56470;47.350;8.718;2023-12-22T14:54:21;8.43;82.64
69324;DHT22;56470;47.350;8.718;2023-12-22T14:56:46;8.46;82.55
69324;DHT22;56470;47.350;8.718;2023-12-22T14:59:12;8.45;82.65
69324;DHT22;56470;47.350;8.718;2023-12-22T15:01:40;8.43;82.64
69324;DHT22;56470;47.350;8.718;2023-12-22T15:04:06;8.52;82.63
69324;DHT22;56470;47.350;8.718;2023-12-22T15:06:32;8.52;82.59
69324;DHT22;56470;47.350;8.718;2023-12-22T15:08:57;8.49;82.71
69324;DHT22;56470;47.350;8.718;2023-12-22T15:11:25;8.48;82.75
69324;DHT22;56470;47.350;8.718;2023-12-22T15:13:50;8.48;82.86
69324;DHT22;56470;47.350;8.718;2023-12-22T15:16:16;8.48;82.76
69324;DHT22;56470;47.350;8.718;2023-12-22T15:18:41;8.53;82.52
69324;DHT22;56470;47.350;8.718;2023-12-22T15:21:06;8.52;82.78
69324;DHT22;56470;47.350;8.718;2023-12-22T15:23:32;8.52;83.02
69324;DHT22;56470;47.350;8.718;2023-12-22T15:25:57;8.52;82.93
69324;DHT22;56470;47.350;8.718;2023-12-22T15:28:22;8.54;83.00
69324;DHT22;56470;47.350;8.718;2023-12-22T15:30:48;8.54;83.17
69324;DHT22;56470;47.350;8.718;2023-12-22T15:33:13;8.52;83.15
69324;DHT22;56470;47.350;8.718;2023-12-22T15:35:39;8.42;84.22
69324;DHT22;56470;47.350;8.718;2023-12-22T15:38:04;8.38;83.98
69324;DHT22;56470;47.350;8.718;2023-12-22T15:40:29;8.36;84.67
69324;DHT22;56470;47.350;8.718;2023-12-22T15:42:55;8.40;84.35
69324;DHT22;56470;47.350;8.718;2023-12-22T15:45:20;8.36;84.35
69324;DHT22;56470;47.350;8.718;2023-12-22T15:47:45;8.29;85.36
69324;DHT22;56470;47.350;8.718;2023-12-22T15:50:11;8.31;85.45
69324;DHT22;56470;47.350;8.718;2023-12-22T15:52:36;8.33;85.24
69324;DHT22;56470;47.350;8.718;2023-12-22T16:19:50;8.39;85.38
69324;DHT22;56470;47.350;8.718;2023-12-22T16:22:21;8.46;84.95
69324;DHT22;56470;47.350;8.718;2023-12-22T16:24:52;8.49;84.76
69324;DHT22;56470;47.350;8.718;2023-12-22T16:27:18;8.52;84.50
69324;DHT22;56470;47.350;8.718;2023-12-22T16:29:49;8.57;84.12